Time;durP1;ratioP1;P1;durP2;ratioP2;P2;SDS_P1;SDS_P2;PMS_P1;PMS_P2;Temp;Humidity;BMP_temperature;BMP_pressure;BME280_temperature;BME280_humidity;BME280_pressure;Samples;Min_cycle;Max_cycle;Signal;HPM_P1;HPM_P2
2021/09/13 00:01:52;;;;;;;11.73;1.67;;;;;;;;;;4989454;28;20108;-60
2021/09/13 00:04:20;;;;;;;19.38;1.88;;;;;;;;;;5006706;28;20025;-59
2021/09/13 00:06:51;;;;;;;7.28;1.85;;;;;;;;;;5028781;28;20052;-59
2021/09/13 00:09:18;;;;;;;16.77;2.00;;;;;;;;;;4997682;28;20034;-58
2021/09/13 00:11:46;;;;;;;8.98;1.60;;;;;;;;;;5012164;28;20036;-59
2021/09/13 00:14:12;;;;;;;9.10;1.88;;;;;;;;;;5010705;28;20056;-59
2021/09/13 00:16:40;;;;;;;17.75;2.33;;;;;;;;;;4999951;28;20588;-60
2021/09/13 00:19:08;;;;;;;7.35;1.73;;;;;;;;;;5014972;28;20037;-58
2021/09/13 00:21:36;;;;;;;8.80;2.10;;;;;;;;;;5028329;28;20037;-59
2021/09/13 00:24:02;;;;;;;7.22;1.92;;;;;;;;;;4996094;28;20031;-60
2021/09/13 00:26:32;;;;;;;15.25;2.17;;;;;;;;;;4997761;28;21283;-61
2021/09/13 00:29:00;;;;;;;17.75;2.53;;;;;;;;;;5005433;28;21291;-60
2021/09/13 00:31:26;;;;;;;11.70;1.98;;;;;;;;;;5031902;28;20069;-59
2021/09/13 00:33:51;;;;;;;9.73;1.88;;;;;;;;;;5013573;28;20032;-60
2021/09/13 00:36:17;;;;;;;10.07;1.92;;;;;;;;;;5031225;28;20106;-60
2021/09/13 00:38:47;;;;;;;11.93;1.92;;;;;;;;;;4995739;28;20036;-60
2021/09/13 00:41:13;;;;;;;7.20;1.92;;;;;;;;;;5011385;28;20041;-61
2021/09/13 00:43:40;;;;;;;14.50;1.95;;;;;;;;;;5028865;28;21084;-60
2021/09/13 00:46:08;;;;;;;10.20;1.65;;;;;;;;;;4992142;28;20048;-60
2021/09/13 00:48:36;;;;;;;20.83;2.45;;;;;;;;;;4994654;28;20041;-59
2021/09/13 00:51:04;;;;;;;12.68;2.47;;;;;;;;;;5012907;28;20120;-60
2021/09/13 00:53:31;;;;;;;9.07;2.08;;;;;;;;;;4997303;28;20036;-60
2021/09/13 00:56:02;;;;;;;12.55;2.20;;;;;;;;;;5030567;28;20903;-59
2021/09/13 00:58:32;;;;;;;14.70;2.35;;;;;;;;;;5011584;28;20075;-60
2021/09/13 01:01:00;;;;;;;11.02;2.13;;;;;;;;;;5028458;28;21987;-59
2021/09/13 01:03:27;;;;;;;9.40;2.17;;;;;;;;;;5029360;28;20060;-60
2021/09/13 01:05:58;;;;;;;14.15;2.35;;;;;;;;;;5005281;28;20057;-61
2021/09/13 01:08:25;;;;;;;21.38;2.75;;;;;;;;;;5029863;28;20036;-61
2021/09/13 01:10:52;;;;;;;8.27;1.80;;;;;;;;;;5010673;28;20178;-59
2021/09/13 01:13:20;;;;;;;12.48;1.75;;;;;;;;;;4994142;28;20477;-58
2021/09/13 01:15:45;;;;;;;11.30;1.80;;;;;;;;;;4993971;28;20918;-60
2021/09/13 01:18:15;;;;;;;10.57;1.67;;;;;;;;;;5026513;28;20108;-60
2021/09/13 01:20:43;;;;;;;12.98;1.90;;;;;;;;;;5010347;28;20043;-59
2021/09/13 01:23:23;;;;;;;6.15;1.80;;;;;;;;;;5028870;28;20028;-60
2021/09/13 01:25:50;;;;;;;8.05;1.75;;;;;;;;;;4995001;28;20036;-58
2021/09/13 01:28:18;;;;;;;5.45;1.55;;;;;;;;;;5028238;28;20021;-60
2021/09/13 01:30:46;;;;;;;17.85;2.15;;;;;;;;;;5025831;28;20029;-59
2021/09/13 01:33:14;;;;;;;8.20;1.73;;;;;;;;;;5006112;28;22089;-61
2021/09/13 01:35:40;;;;;;;9.30;2.13;;;;;;;;;;5002254;28;20128;-60
2021/09/13 01:38:06;;;;;;;15.85;2.00;;;;;;;;;;5024131;28;20028;-61
2021/09/13 01:40:31;;;;;;;13.40;1.83;;;;;;;;;;4994169;28;20048;-59
2021/09/13 01:42:57;;;;;;;8.63;1.88;;;;;;;;;;5010756;28;20020;-60
2021/09/13 01:45:26;;;;;;;14.48;1.83;;;;;;;;;;5028532;28;20086;-61
2021/09/13 01:47:54;;;;;;;10.38;1.98;;;;;;;;;;5027702;28;20020;-61
2021/09/13 01:50:20;;;;;;;11.88;1.90;;;;;;;;;;5009511;28;20029;-61
2021/09/13 01:52:48;;;;;;;13.43;2.30;;;;;;;;;;5007118;28;20039;-60
2021/09/13 01:55:16;;;;;;;10.15;2.15;;;;;;;;;;5008122;28;20037;-60
2021/09/13 01:57:41;;;;;;;12.95;2.17;;;;;;;;;;4992874;28;20090;-60
2021/09/13 02:00:10;;;;;;;12.27;2.42;;;;;;;;;;5019513;28;20021;-59
2021/09/13 02:02:38;;;;;;;20.60;2.70;;;;;;;;;;5010897;28;22132;-60
2021/09/13 02:05:06;;;;;;;8.13;1.88;;;;;;;;;;5006746;28;20043;-59
2021/09/13 02:07:31;;;;;;;12.05;2.28;;;;;;;;;;5007150;28;20045;-60
2021/09/13 02:09:57;;;;;;;8.80;2.35;;;;;;;;;;5027771;28;20111;-60
2021/09/13 02:12:24;;;;;;;17.70;2.53;;;;;;;;;;4980051;28;20123;-62
2021/09/13 02:14:52;;;;;;;17.08;2.45;;;;;;;;;;5011037;28;20624;-61
2021/09/13 02:17:24;;;;;;;8.50;2.75;;;;;;;;;;5027613;28;20629;-60
2021/09/13 02:19:50;;;;;;;11.55;1.92;;;;;;;;;;5027823;28;20489;-60
2021/09/13 02:22:18;;;;;;;14.77;1.95;;;;;;;;;;5008237;28;20032;-60
2021/09/13 02:24:46;;;;;;;12.30;2.85;;;;;;;;;;5012789;28;20036;-59
2021/09/13 02:27:11;;;;;;;7.55;2.10;;;;;;;;;;5008840;28;20029;-61
2021/09/13 02:29:39;;;;;;;4.57;2.30;;;;;;;;;;4978075;28;20397;-61
2021/09/13 02:32:07;;;;;;;20.25;2.20;;;;;;;;;;5007852;28;20499;-60
2021/09/13 02:34:35;;;;;;;13.63;2.67;;;;;;;;;;4990915;28;20033;-60
2021/09/13 02:37:05;;;;;;;15.32;2.00;;;;;;;;;;4990454;28;20037;-62
2021/09/13 02:39:30;;;;;;;14.25;1.95;;;;;;;;;;5007583;28;20031;-61
2021/09/13 02:41:56;;;;;;;15.27;2.20;;;;;;;;;;5015557;28;20028;-60
2021/09/13 02:44:23;;;;;;;24.17;3.10;;;;;;;;;;5024302;28;20057;-60
2021/09/13 02:46:53;;;;;;;8.27;2.10;;;;;;;;;;5005548;28;20029;-59
2021/09/13 02:49:20;;;;;;;10.00;2.13;;;;;;;;;;5025472;28;20071;-61
2021/09/13 02:51:51;;;;;;;6.25;2.22;;;;;;;;;;5027526;28;20031;-60
2021/09/13 02:54:19;;;;;;;8.65;2.28;;;;;;;;;;5027079;28;20022;-60
2021/09/13 02:56:49;;;;;;;5.70;2.20;;;;;;;;;;5009807;28;20025;-59
2021/09/13 02:59:17;;;;;;;5.07;2.00;;;;;;;;;;5026475;28;20029;-60
2021/09/13 03:01:43;;;;;;;8.23;2.20;;;;;;;;;;5026491;28;20802;-61
2021/09/13 03:04:08;;;;;;;8.82;1.90;;;;;;;;;;4994232;28;20044;-59
2021/09/13 03:06:34;;;;;;;15.57;2.42;;;;;;;;;;5026755;28;20133;-60
2021/09/13 03:09:02;;;;;;;14.73;2.30;;;;;;;;;;5004268;28;20041;-60
2021/09/13 03:11:30;;;;;;;15.98;2.38;;;;;;;;;;4992642;28;20036;-60
2021/09/13 03:13:58;;;;;;;11.93;2.03;;;;;;;;;;5025595;28;20044;-60
2021/09/13 03:16:25;;;;;;;13.50;2.40;;;;;;;;;;4988856;28;20032;-61
2021/09/13 03:18:53;;;;;;;13.05;1.75;;;;;;;;;;5011292;28;20032;-60
2021/09/13 03:21:21;;;;;;;8.13;2.05;;;;;;;;;;5009751;28;20025;-60
2021/09/13 03:23:49;;;;;;;13.05;2.10;;;;;;;;;;5001578;28;20044;-60
2021/09/13 03:26:17;;;;;;;8.02;2.40;;;;;;;;;;4997204;28;20097;-62
2021/09/13 03:28:42;;;;;;;8.65;2.08;;;;;;;;;;5005772;28;20032;-60
2021/09/13 03:31:08;;;;;;;10.40;2.22;;;;;;;;;;5012331;28;20038;-61
2021/09/13 03:33:39;;;;;;;6.22;2.08;;;;;;;;;;5025386;28;20115;-62
2021/09/13 03:36:07;;;;;;;11.50;1.90;;;;;;;;;;5023900;28;20111;-60
2021/09/13 03:38:35;;;;;;;9.20;2.33;;;;;;;;;;5011195;28;20033;-60
2021/09/13 03:41:04;;;;;;;11.60;2.40;;;;;;;;;;5022093;28;20040;-60
2021/09/13 03:43:29;;;;;;;11.52;2.10;;;;;;;;;;5026409;28;20029;-60
2021/09/13 03:45:58;;;;;;;8.38;2.42;;;;;;;;;;5012474;28;20432;-61
2021/09/13 03:48:23;;;;;;;8.55;2.50;;;;;;;;;;4972711;28;21042;-60
2021/09/13 03:50:49;;;;;;;13.05;2.88;;;;;;;;;;4995226;28;20039;-59
2021/09/13 03:53:15;;;;;;;16.40;2.45;;;;;;;;;;5024706;28;20034;-60
2021/09/13 03:55:40;;;;;;;12.00;2.63;;;;;;;;;;5006573;28;20525;-60
2021/09/13 03:58:11;;;;;;;10.10;2.35;;;;;;;;;;4995508;28;21128;-59
2021/09/13 04:00:38;;;;;;;5.10;1.83;;;;;;;;;;5027738;28;20064;-61
2021/09/13 04:03:12;;;;;;;10.07;1.95;;;;;;;;;;5011235;28;20025;-60
2021/09/13 04:05:44;;;;;;;3.90;1.42;;;;;;;;;;5011851;28;20033;-61
2021/09/13 04:08:35;;;;;;;5.60;1.92;;;;;;;;;;5007546;28;20036;-61
2021/09/13 04:11:35;;;;;;;13.05;2.08;;;;;;;;;;4992949;28;20103;-59
2021/09/13 04:14:02;;;;;;;7.63;2.03;;;;;;;;;;5024102;28;20778;-61
2021/09/13 04:16:28;;;;;;;8.20;2.15;;;;;;;;;;5027089;28;20572;-60
2021/09/13 04:18:56;;;;;;;11.05;2.50;;;;;;;;;;5011435;28;20041;-59
2021/09/13 04:21:23;;;;;;;6.20;1.90;;;;;;;;;;4989082;28;20483;-60
2021/09/13 04:23:52;;;;;;;4.75;1.85;;;;;;;;;;5026728;28;21092;-59
2021/09/13 04:26:19;;;;;;;10.38;2.22;;;;;;;;;;5009123;28;20706;-61
2021/09/13 04:28:46;;;;;;;13.48;2.38;;;;;;;;;;4987359;28;20037;-61
2021/09/13 04:31:11;;;;;;;9.55;2.75;;;;;;;;;;5028301;28;20674;-60
2021/09/13 04:33:37;;;;;;;10.63;2.05;;;;;;;;;;5011358;28;20064;-60
2021/09/13 04:36:05;;;;;;;5.30;1.70;;;;;;;;;;5012339;28;20044;-60
2021/09/13 04:38:33;;;;;;;8.68;2.65;;;;;;;;;;4996963;28;20515;-61
2021/09/13 04:41:01;;;;;;;10.18;1.83;;;;;;;;;;4997884;28;21887;-60
2021/09/13 04:43:26;;;;;;;12.70;2.75;;;;;;;;;;5011466;28;20041;-60
2021/09/13 04:45:51;;;;;;;6.75;1.88;;;;;;;;;;5012149;28;20033;-59
2021/09/13 04:48:17;;;;;;;20.63;2.58;;;;;;;;;;5013795;28;21483;-60
2021/09/13 04:50:42;;;;;;;10.05;2.45;;;;;;;;;;4983508;28;20025;-59
2021/09/13 04:53:12;;;;;;;7.85;2.20;;;;;;;;;;5029974;28;20041;-60
2021/09/13 04:55:40;;;;;;;10.40;2.17;;;;;;;;;;5027936;28;20067;-60
2021/09/13 04:58:05;;;;;;;4.47;2.17;;;;;;;;;;5009456;28;20033;-60
2021/09/13 05:00:31;;;;;;;7.00;2.17;;;;;;;;;;5026441;28;20035;-59
2021/09/13 05:02:59;;;;;;;6.55;2.47;;;;;;;;;;5010200;28;20030;-59
2021/09/13 05:05:27;;;;;;;5.05;2.10;;;;;;;;;;5011693;28;20072;-60
2021/09/13 05:07:56;;;;;;;6.47;2.40;;;;;;;;;;5002932;28;20069;-58
2021/09/13 05:10:21;;;;;;;9.05;2.40;;;;;;;;;;5005215;28;20060;-60
2021/09/13 05:12:47;;;;;;;8.07;2.58;;;;;;;;;;5027406;28;20444;-60
2021/09/13 05:15:17;;;;;;;12.88;2.45;;;;;;;;;;5004098;28;20596;-60
2021/09/13 05:17:43;;;;;;;7.65;2.28;;;;;;;;;;5027099;28;20037;-60
2021/09/13 05:20:09;;;;;;;11.68;2.85;;;;;;;;;;5026739;28;20044;-60
2021/09/13 05:22:39;;;;;;;7.03;2.38;;;;;;;;;;4989553;28;20041;-60
2021/09/13 05:25:05;;;;;;;8.55;2.40;;;;;;;;;;5012932;28;20039;-60
2021/09/13 05:27:30;;;;;;;10.73;3.03;;;;;;;;;;5025167;28;20730;-58
2021/09/13 05:29:56;;;;;;;6.35;2.13;;;;;;;;;;5004317;28;22060;-59
2021/09/13 05:32:21;;;;;;;11.52;2.25;;;;;;;;;;5012546;28;20131;-58
2021/09/13 05:34:54;;;;;;;5.43;2.10;;;;;;;;;;5013297;28;20539;-59
2021/09/13 05:37:20;;;;;;;5.43;2.38;;;;;;;;;;5024306;28;20040;-58
2021/09/13 05:39:45;;;;;;;10.70;2.00;;;;;;;;;;4994271;28;20032;-60
2021/09/13 05:42:15;;;;;;;3.17;2.17;;;;;;;;;;5001727;28;20040;-58
2021/09/13 05:44:41;;;;;;;13.13;2.10;;;;;;;;;;5011320;28;20032;-58
2021/09/13 05:47:07;;;;;;;8.05;2.05;;;;;;;;;;5002857;28;20111;-59
2021/09/13 05:49:32;;;;;;;4.50;2.00;;;;;;;;;;5019700;28;20120;-58
2021/09/13 05:52:00;;;;;;;12.82;2.45;;;;;;;;;;5025227;28;20041;-59
2021/09/13 05:54:28;;;;;;;5.15;1.58;;;;;;;;;;4977498;28;20783;-59
2021/09/13 05:56:54;;;;;;;9.43;1.67;;;;;;;;;;4991311;28;20033;-59
2021/09/13 05:59:22;;;;;;;12.20;2.00;;;;;;;;;;5016112;28;20052;-59
2021/09/13 06:01:50;;;;;;;2.95;1.85;;;;;;;;;;4996278;28;20032;-59
2021/09/13 06:04:19;;;;;;;5.22;1.75;;;;;;;;;;5028270;28;20044;-59
2021/09/13 06:06:47;;;;;;;6.60;1.92;;;;;;;;;;5006878;28;20097;-59
2021/09/13 06:09:15;;;;;;;3.40;1.90;;;;;;;;;;5024737;28;20025;-58
2021/09/13 06:11:41;;;;;;;5.00;1.88;;;;;;;;;;5022746;28;20029;-60
2021/09/13 06:14:09;;;;;;;5.72;1.70;;;;;;;;;;4992929;28;20135;-60
2021/09/13 06:16:35;;;;;;;5.25;2.10;;;;;;;;;;5013069;28;20620;-59
2021/09/13 06:19:01;;;;;;;3.75;1.60;;;;;;;;;;5026517;28;20633;-60
2021/09/13 06:21:27;;;;;;;3.67;1.77;;;;;;;;;;4994017;28;20824;-58
2021/09/13 06:23:55;;;;;;;9.50;1.73;;;;;;;;;;5009489;28;20037;-59
2021/09/13 06:26:20;;;;;;;9.25;1.83;;;;;;;;;;4991473;28;20488;-60
2021/09/13 06:28:50;;;;;;;6.32;2.00;;;;;;;;;;5005904;28;20084;-60
2021/09/13 06:31:18;;;;;;;9.13;1.90;;;;;;;;;;5010800;28;20033;-60
2021/09/13 06:33:46;;;;;;;7.65;1.90;;;;;;;;;;5027120;28;20047;-61
2021/09/13 06:36:16;;;;;;;8.43;1.90;;;;;;;;;;5019788;28;20091;-61
2021/09/13 06:38:46;;;;;;;4.28;1.77;;;;;;;;;;5003031;28;20040;-59
2021/09/13 06:41:14;;;;;;;10.60;2.05;;;;;;;;;;5025137;28;20117;-59
2021/09/13 06:43:43;;;;;;;10.60;2.00;;;;;;;;;;5009731;28;20025;-58
2021/09/13 06:46:13;;;;;;;3.33;1.42;;;;;;;;;;4993317;28;20060;-59
2021/09/13 06:48:40;;;;;;;6.53;1.50;;;;;;;;;;5004527;28;20033;-60
2021/09/13 06:51:08;;;;;;;13.23;2.33;;;;;;;;;;5001438;28;20037;-60
2021/09/13 06:53:36;;;;;;;6.47;1.65;;;;;;;;;;5002485;28;20120;-60
2021/09/13 06:56:07;;;;;;;5.25;1.73;;;;;;;;;;4990968;28;20029;-61
2021/09/13 06:58:34;;;;;;;5.07;1.90;;;;;;;;;;4968940;28;20177;-61
2021/09/13 07:01:04;;;;;;;4.30;1.65;;;;;;;;;;4976799;28;20547;-61
2021/09/13 07:03:35;;;;;;;3.47;1.65;;;;;;;;;;4991179;28;20110;-61
2021/09/13 07:06:04;;;;;;;6.65;1.52;;;;;;;;;;4984290;28;20053;-60
2021/09/13 07:08:29;;;;;;;8.63;1.70;;;;;;;;;;5026200;28;20527;-61
2021/09/13 07:10:59;;;;;;;11.07;1.63;;;;;;;;;;4970958;28;20045;-60
2021/09/13 07:13:27;;;;;;;13.05;1.85;;;;;;;;;;5006720;28;20025;-60
2021/09/13 07:15:54;;;;;;;3.03;1.45;;;;;;;;;;5015333;28;20058;-60
2021/09/13 07:18:20;;;;;;;5.90;1.80;;;;;;;;;;5020235;28;20044;-61
2021/09/13 07:20:48;;;;;;;4.90;1.63;;;;;;;;;;4997827;28;20032;-61
2021/09/13 07:23:16;;;;;;;8.10;1.90;;;;;;;;;;5018305;28;20025;-60
2021/09/13 07:25:42;;;;;;;4.20;1.50;;;;;;;;;;5023843;28;20838;-60
2021/09/13 07:28:10;;;;;;;7.60;1.95;;;;;;;;;;4993961;28;20037;-61
2021/09/13 07:30:40;;;;;;;4.88;1.42;;;;;;;;;;4999676;28;20144;-61
2021/09/13 07:33:05;;;;;;;5.35;1.50;;;;;;;;;;4978702;28;21935;-61
2021/09/13 07:35:31;;;;;;;11.63;1.58;;;;;;;;;;4999543;28;20041;-60
2021/09/13 07:37:59;;;;;;;2.95;1.08;;;;;;;;;;5015380;28;20126;-60
2021/09/13 07:40:24;;;;;;;7.22;1.27;;;;;;;;;;4976542;28;20029;-61
2021/09/13 07:42:52;;;;;;;6.32;1.45;;;;;;;;;;5021209;28;20111;-61
2021/09/13 07:45:18;;;;;;;6.45;1.10;;;;;;;;;;5014117;28;20038;-61
2021/09/13 07:47:45;;;;;;;5.63;1.10;;;;;;;;;;5012039;28;20029;-61
2021/09/13 07:50:11;;;;;;;9.73;1.10;;;;;;;;;;5014656;28;20067;-61
2021/09/13 07:52:37;;;;;;;8.63;1.05;;;;;;;;;;4982610;28;21217;-60
2021/09/13 07:55:02;;;;;;;5.47;0.85;;;;;;;;;;4987935;28;20102;-60
2021/09/13 07:57:30;;;;;;;5.35;1.20;;;;;;;;;;5021507;28;20071;-62
2021/09/13 08:00:00;;;;;;;4.65;0.80;;;;;;;;;;4999705;28;20067;-62
2021/09/13 08:02:26;;;;;;;2.20;0.98;;;;;;;;;;5010347;28;20045;-59
2021/09/13 08:04:54;;;;;;;6.30;0.82;;;;;;;;;;5024684;28;20033;-61
2021/09/13 08:07:22;;;;;;;2.83;0.60;;;;;;;;;;5022343;28;20146;-60
2021/09/13 08:09:47;;;;;;;2.05;0.55;;;;;;;;;;4990366;28;20127;-61
2021/09/13 08:12:15;;;;;;;6.78;0.88;;;;;;;;;;5008921;28;20340;-61
2021/09/13 08:14:41;;;;;;;2.58;0.80;;;;;;;;;;5015278;28;20056;-61
2021/09/13 08:17:09;;;;;;;0.77;0.50;;;;;;;;;;5002233;28;20036;-61
2021/09/13 08:19:44;;;;;;;3.05;0.63;;;;;;;;;;5016027;28;21042;-62
2021/09/13 08:22:14;;;;;;;1.02;0.77;;;;;;;;;;5005666;28;20060;-61
2021/09/13 08:24:44;;;;;;;7.60;1.10;;;;;;;;;;4990169;28;20636;-61
2021/09/13 08:27:09;;;;;;;4.40;0.73;;;;;;;;;;5008121;28;20036;-61
2021/09/13 08:29:40;;;;;;;7.30;0.82;;;;;;;;;;4997726;28;20036;-62
2021/09/13 08:32:05;;;;;;;10.27;0.50;;;;;;;;;;5007088;28;20037;-63
2021/09/13 08:34:36;;;;;;;7.65;0.73;;;;;;;;;;4988211;28;20966;-59
2021/09/13 08:37:04;;;;;;;0.80;0.25;;;;;;;;;;5021254;28;20384;-63
2021/09/13 08:39:32;;;;;;;4.25;0.68;;;;;;;;;;4987145;28;20492;-62
2021/09/13 08:42:08;;;;;;;1.95;0.40;;;;;;;;;;5001903;28;21243;-63
2021/09/13 08:44:38;;;;;;;3.35;0.65;;;;;;;;;;5032339;28;20141;-63
2021/09/13 08:47:34;;;;;;;2.10;0.82;;;;;;;;;;5012925;28;20493;-62
2021/09/13 08:50:08;;;;;;;3.22;0.60;;;;;;;;;;5020571;28;20029;-62
2021/09/13 08:52:38;;;;;;;1.92;0.45;;;;;;;;;;5005829;28;20035;-62
2021/09/13 08:55:06;;;;;;;4.15;0.68;;;;;;;;;;5023519;28;20518;-62
2021/09/13 08:57:37;;;;;;;2.55;0.50;;;;;;;;;;4974024;28;20392;-62
2021/09/13 09:00:03;;;;;;;2.90;0.60;;;;;;;;;;4998748;28;20094;-62
2021/09/13 09:02:30;;;;;;;5.90;0.82;;;;;;;;;;4987157;28;20546;-61
2021/09/13 09:05:01;;;;;;;9.07;0.77;;;;;;;;;;5017623;28;20029;-62
2021/09/13 09:07:45;;;;;;;5.03;0.60;;;;;;;;;;4983753;28;20053;-62
2021/09/13 09:10:17;;;;;;;2.45;0.50;;;;;;;;;;4995009;28;20033;-64
2021/09/13 09:12:57;;;;;;;2.90;0.50;;;;;;;;;;5017966;28;20052;-63
2021/09/13 09:15:26;;;;;;;1.98;0.50;;;;;;;;;;5017274;28;20029;-64
2021/09/13 09:17:55;;;;;;;1.40;0.47;;;;;;;;;;4998194;28;20037;-62
2021/09/13 09:20:21;;;;;;;0.82;0.35;;;;;;;;;;5020073;28;20396;-62
2021/09/13 09:22:47;;;;;;;1.85;0.60;;;;;;;;;;5000933;28;20033;-61
2021/09/13 09:25:25;;;;;;;5.05;0.60;;;;;;;;;;5016536;28;20049;-62
2021/09/13 09:27:58;;;;;;;1.42;0.47;;;;;;;;;;5019295;28;20025;-62
2021/09/13 09:30:37;;;;;;;6.47;0.70;;;;;;;;;;5021666;28;20630;-62
2021/09/13 09:33:11;;;;;;;0.93;0.40;;;;;;;;;;4986590;28;20922;-63
2021/09/13 09:35:50;;;;;;;1.27;0.50;;;;;;;;;;4999865;28;20053;-62
2021/09/13 09:38:54;;;;;;;2.00;0.20;;;;;;;;;;5018625;28;20040;-63
2021/09/13 09:41:22;;;;;;;3.50;0.60;;;;;;;;;;4940598;28;20035;-62
2021/09/13 09:43:51;;;;;;;6.13;0.50;;;;;;;;;;4992216;28;20052;-62
2021/09/13 09:46:17;;;;;;;4.40;0.63;;;;;;;;;;5030040;28;20038;-62
2021/09/13 09:48:43;;;;;;;4.10;0.70;;;;;;;;;;4988766;28;20067;-62
2021/09/13 09:51:28;;;;;;;2.83;0.50;;;;;;;;;;4984046;28;20033;-62
2021/09/13 09:53:57;;;;;;;2.13;0.43;;;;;;;;;;5011174;28;20037;-62
2021/09/13 09:56:26;;;;;;;1.95;0.32;;;;;;;;;;5020598;28;20032;-62
2021/09/13 09:59:05;;;;;;;0.50;0.20;;;;;;;;;;4983214;28;20037;-62
2021/09/13 10:01:34;;;;;;;9.38;1.00;;;;;;;;;;4988694;28;20033;-63
2021/09/13 10:04:20;;;;;;;1.85;0.30;;;;;;;;;;5003560;28;20025;-63
2021/09/13 10:06:55;;;;;;;5.55;0.35;;;;;;;;;;5001431;28;20044;-63
2021/09/13 10:09:24;;;;;;;1.75;0.30;;;;;;;;;;4999900;28;20068;-63
2021/09/13 10:11:53;;;;;;;1.50;0.30;;;;;;;;;;5002603;28;20082;-62
2021/09/13 10:14:22;;;;;;;1.83;0.30;;;;;;;;;;4990786;28;20104;-62
2021/09/13 10:16:48;;;;;;;0.55;0.28;;;;;;;;;;5013044;28;20404;-62
2021/09/13 10:19:17;;;;;;;3.15;0.47;;;;;;;;;;4997322;28;20029;-62
2021/09/13 10:21:42;;;;;;;1.02;0.38;;;;;;;;;;5015892;28;20031;-61
2021/09/13 10:24:12;;;;;;;2.05;0.40;;;;;;;;;;4984482;28;20180;-62
2021/09/13 10:26:44;;;;;;;2.00;0.30;;;;;;;;;;4998861;28;20572;-62
2021/09/13 10:29:13;;;;;;;4.32;0.50;;;;;;;;;;5016565;28;20488;-63
2021/09/13 10:31:46;;;;;;;3.65;0.40;;;;;;;;;;5020198;28;20037;-62
2021/09/13 10:34:21;;;;;;;0.77;0.10;;;;;;;;;;5001478;28;20025;-63
2021/09/13 10:36:58;;;;;;;1.42;0.22;;;;;;;;;;5004281;28;21001;-62
2021/09/13 10:39:44;;;;;;;3.28;0.50;;;;;;;;;;5026883;28;20033;-62
2021/09/13 10:42:09;;;;;;;0.55;0.40;;;;;;;;;;4982156;28;20637;-62
2021/09/13 10:44:36;;;;;;;3.72;0.43;;;;;;;;;;4990051;28;20047;-62
2021/09/13 10:47:05;;;;;;;0.28;0.13;;;;;;;;;;5029746;28;20380;-63
2021/09/13 10:49:33;;;;;;;1.95;0.40;;;;;;;;;;5000465;28;20029;-62
2021/09/13 10:52:19;;;;;;;1.98;0.38;;;;;;;;;;4986557;28;20036;-62
2021/09/13 10:54:45;;;;;;;;;;;;;;;;;;4998782;28;20408;-63
2021/09/13 10:57:14;;;;;;;5.07;0.57;;;;;;;;;;4997506;28;19916;-62
2021/09/13 10:59:44;;;;;;;1.98;0.40;;;;;;;;;;4986083;28;20040;-62
2021/09/13 11:02:12;;;;;;;0.70;0.15;;;;;;;;;;4982284;28;20040;-62
2021/09/13 11:04:57;;;;;;;0.43;0.20;;;;;;;;;;5013699;28;20075;-62
2021/09/13 11:07:23;;;;;;;1.45;0.20;;;;;;;;;;5016232;28;20100;-62
2021/09/13 11:09:54;;;;;;;1.20;0.40;;;;;;;;;;4996880;28;20041;-63
2021/09/13 11:12:24;;;;;;;3.90;0.85;;;;;;;;;;5016963;28;20114;-62
2021/09/13 11:15:02;;;;;;;0.30;0.30;;;;;;;;;;5026643;28;20040;-63
2021/09/13 11:17:33;;;;;;;0.40;0.28;;;;;;;;;;5005916;28;20048;-62
2021/09/13 11:20:03;;;;;;;1.13;0.25;;;;;;;;;;5007146;28;21686;-62
2021/09/13 11:22:28;;;;;;;0.98;0.40;;;;;;;;;;5012313;28;20948;-62
2021/09/13 11:24:54;;;;;;;1.85;0.22;;;;;;;;;;4997223;28;20046;-62
2021/09/13 11:27:22;;;;;;;1.75;0.30;;;;;;;;;;5020024;28;20032;-62
2021/09/13 11:29:50;;;;;;;4.25;0.50;;;;;;;;;;4978430;28;20037;-62
2021/09/13 11:32:19;;;;;;;0.63;0.25;;;;;;;;;;5004718;28;21952;-62
2021/09/13 11:34:45;;;;;;;3.40;0.40;;;;;;;;;;5017421;28;20029;-62
2021/09/13 11:37:27;;;;;;;1.48;0.40;;;;;;;;;;5018839;28;20053;-62
2021/09/13 11:40:00;;;;;;;0.40;0.10;;;;;;;;;;5013367;28;20453;-62
2021/09/13 11:42:34;;;;;;;2.15;0.40;;;;;;;;;;4991937;28;20092;-62
2021/09/13 11:45:06;;;;;;;2.33;0.60;;;;;;;;;;5033107;28;20043;-64
2021/09/13 11:47:37;;;;;;;1.08;0.32;;;;;;;;;;5019691;28;20029;-63
2021/09/13 11:50:07;;;;;;;2.55;0.20;;;;;;;;;;4993008;28;20124;-62
2021/09/13 11:52:41;;;;;;;3.30;0.38;;;;;;;;;;5022704;28;20032;-62
2021/09/13 11:55:07;;;;;;;1.98;0.30;;;;;;;;;;4986816;28;20120;-62
2021/09/13 11:57:37;;;;;;;0.80;0.30;;;;;;;;;;5020986;28;20717;-63
2021/09/13 12:00:09;;;;;;;2.38;0.45;;;;;;;;;;5031040;28;20584;-63
2021/09/13 12:02:35;;;;;;;1.83;0.60;;;;;;;;;;5023371;28;20020;-62
2021/09/13 12:05:12;;;;;;;0.43;0.30;;;;;;;;;;4987299;28;20037;-62
2021/09/13 12:07:37;;;;;;;1.08;0.38;;;;;;;;;;4981891;28;20045;-62
2021/09/13 12:10:03;;;;;;;0.90;0.20;;;;;;;;;;4999224;28;20320;-62
2021/09/13 12:12:31;;;;;;;19.73;3.53;;;;;;;;;;5001154;28;20060;-64
2021/09/13 12:15:05;;;;;;;2.05;0.40;;;;;;;;;;5007513;28;20025;-62
2021/09/13 12:17:34;;;;;;;2.88;1.00;;;;;;;;;;5014360;28;20033;-63
2021/09/13 12:20:11;;;;;;;2.10;0.43;;;;;;;;;;5006832;28;20044;-63
2021/09/13 12:22:39;;;;;;;3.13;0.30;;;;;;;;;;5000446;28;20029;-63
2021/09/13 12:25:09;;;;;;;3.38;0.50;;;;;;;;;;5000448;28;21949;-63
2021/09/13 12:27:39;;;;;;;5.53;0.43;;;;;;;;;;4998490;28;20034;-63
2021/09/13 12:30:08;;;;;;;1.15;0.35;;;;;;;;;;5003568;28;20029;-61
2021/09/13 12:32:37;;;;;;;3.78;0.47;;;;;;;;;;4993140;28;21805;-62
2021/09/13 12:35:08;;;;;;;5.30;0.75;;;;;;;;;;4986036;28;20033;-62
2021/09/13 12:37:37;;;;;;;1.80;0.57;;;;;;;;;;4997215;28;20142;-61
2021/09/13 12:40:16;;;;;;;2.30;0.40;;;;;;;;;;4977775;28;20033;-61
2021/09/13 12:42:57;;;;;;;2.92;0.30;;;;;;;;;;5000325;28;20123;-63
2021/09/13 12:45:27;;;;;;;4.43;0.80;;;;;;;;;;5008330;28;20670;-64
2021/09/13 12:47:57;;;;;;;0.93;0.30;;;;;;;;;;4975800;28;20038;-63
2021/09/13 12:50:28;;;;;;;1.38;0.40;;;;;;;;;;5005302;28;20112;-63
2021/09/13 12:52:58;;;;;;;2.08;0.40;;;;;;;;;;5006730;28;20033;-62
2021/09/13 12:55:26;;;;;;;0.55;0.32;;;;;;;;;;4977029;28;20034;-62
2021/09/13 12:57:52;;;;;;;2.78;0.40;;;;;;;;;;4996287;28;20123;-62
2021/09/13 13:00:21;;;;;;;2.78;0.35;;;;;;;;;;4998403;28;20039;-62
2021/09/13 13:03:05;;;;;;;2.15;0.65;;;;;;;;;;4986778;28;20033;-62
2021/09/13 13:05:32;;;;;;;1.95;0.40;;;;;;;;;;5003763;28;21254;-62
2021/09/13 13:07:59;;;;;;;3.40;0.47;;;;;;;;;;4989504;28;20053;-62
2021/09/13 13:10:25;;;;;;;6.57;0.45;;;;;;;;;;5005440;28;20559;-63
2021/09/13 13:12:51;;;;;;;2.75;0.47;;;;;;;;;;4981034;28;20037;-63
2021/09/13 13:15:16;;;;;;;6.60;0.60;;;;;;;;;;4991083;28;20506;-62
2021/09/13 13:17:42;;;;;;;1.02;0.32;;;;;;;;;;5005154;28;20026;-62
2021/09/13 13:20:08;;;;;;;5.63;0.88;;;;;;;;;;4990672;28;20029;-62
2021/09/13 13:22:33;;;;;;;4.22;1.13;;;;;;;;;;4983147;28;20021;-63
2021/09/13 13:24:59;;;;;;;2.05;1.00;;;;;;;;;;4985740;28;20532;-63
2021/09/13 13:27:24;;;;;;;3.38;0.70;;;;;;;;;;4984912;28;20033;-63
2021/09/13 13:29:50;;;;;;;2.22;0.40;;;;;;;;;;4994480;28;20033;-63
2021/09/13 13:32:16;;;;;;;3.42;0.47;;;;;;;;;;5005067;28;20040;-63
2021/09/13 13:34:41;;;;;;;1.98;0.60;;;;;;;;;;4995026;28;20033;-63
2021/09/13 13:37:07;;;;;;;3.08;0.35;;;;;;;;;;5007144;28;20041;-63
2021/09/13 13:39:32;;;;;;;2.30;0.40;;;;;;;;;;4985391;28;20041;-63
2021/09/13 13:42:00;;;;;;;1.65;0.30;;;;;;;;;;4999008;28;20048;-62
2021/09/13 13:44:33;;;;;;;1.65;0.68;;;;;;;;;;5003486;28;20033;-61
2021/09/13 13:46:59;;;;;;;3.10;0.50;;;;;;;;;;5012067;28;20040;-61
2021/09/13 13:49:24;;;;;;;1.08;0.40;;;;;;;;;;5005019;28;20032;-60
2021/09/13 13:51:50;;;;;;;3.00;0.57;;;;;;;;;;5004068;28;20080;-61
2021/09/13 13:54:15;;;;;;;2.42;0.28;;;;;;;;;;4982933;28;20037;-61
2021/09/13 13:56:41;;;;;;;1.02;0.43;;;;;;;;;;4987760;28;20066;-61
2021/09/13 13:59:07;;;;;;;1.80;0.40;;;;;;;;;;5001725;28;20091;-62
2021/09/13 14:01:33;;;;;;;4.43;0.40;;;;;;;;;;4983200;28;20437;-62
2021/09/13 14:04:04;;;;;;;3.13;0.50;;;;;;;;;;4980469;28;20907;-61
2021/09/13 14:06:32;;;;;;;2.67;0.52;;;;;;;;;;4978463;28;20060;-63
2021/09/13 14:08:57;;;;;;;1.98;0.57;;;;;;;;;;4998571;28;20079;-63
2021/09/13 14:11:26;;;;;;;4.13;1.33;;;;;;;;;;4996155;28;20037;-65
2021/09/13 14:13:52;;;;;;;1.75;0.35;;;;;;;;;;4999010;28;20444;-63
2021/09/13 14:16:17;;;;;;;2.45;0.40;;;;;;;;;;5007907;28;20069;-63
2021/09/13 14:18:42;;;;;;;0.60;0.32;;;;;;;;;;4985697;28;20234;-63
2021/09/13 14:21:13;;;;;;;1.10;0.52;;;;;;;;;;5001909;28;20179;-63
2021/09/13 14:23:38;;;;;;;2.45;0.52;;;;;;;;;;5007089;28;20037;-63
2021/09/13 14:26:04;;;;;;;2.88;0.60;;;;;;;;;;4994322;28;20022;-64
2021/09/13 14:28:29;;;;;;;6.45;1.13;;;;;;;;;;4989393;28;20228;-63
2021/09/13 14:30:55;;;;;;;4.68;0.80;;;;;;;;;;5002315;28;20100;-62
2021/09/13 14:33:21;;;;;;;1.30;0.50;;;;;;;;;;5006966;28;20039;-61
2021/09/13 14:35:47;;;;;;;3.78;0.85;;;;;;;;;;5008065;28;20033;-62
2021/09/13 14:38:15;;;;;;;6.00;1.00;;;;;;;;;;4972114;28;20033;-62
2021/09/13 14:40:40;;;;;;;2.22;0.80;;;;;;;;;;4991069;28;20037;-63
2021/09/13 14:43:06;;;;;;;4.47;1.60;;;;;;;;;;5007536;28;20048;-63
2021/09/13 14:45:32;;;;;;;4.20;0.60;;;;;;;;;;5006203;28;20025;-63
2021/09/13 14:47:58;;;;;;;4.28;0.70;;;;;;;;;;4995075;28;20037;-62
2021/09/13 14:50:24;;;;;;;1.50;0.40;;;;;;;;;;4986136;28;20097;-63